Avenal, California
Current Conditions -  °F | °C
As of 6:56 PM on Monday 20 Oct 2014 (Local Time) from KNLC Reporting Station
Broken Clouds Broken Clouds  
Wind Chill: 74°   Ceiling: 26000
Heat Index: 74°   Visibility: 10mi
Dew Point: 51°   Wind: 15mph
Humidity: 45%   Direction: 350°N
Pressure: 29.9"   Gusts: NA
Location:  36°N, 120.13°W
Report Text: KNLC 210156Z 35013KT 10SM FEW050 BKN260 23/11 A2990 RMK AO2 SLP124 RH/44 T02330106 $
Loading
Personal Weather Stations






























Interactive Weather Map
Tropical Storm Tracking
New forecast layout! Learn more

10-Day Weather Forecast

Advertisements
Track Severe Weather on mobile